createdAt,value
2018-07-13T00:00:18.522Z,99.90
2018-07-13T00:02:46.758Z,99.90
2018-07-13T00:05:15.445Z,99.90
2018-07-13T00:07:43.619Z,99.90
2018-07-13T00:10:12.471Z,99.90
2018-07-13T00:12:40.491Z,99.90
2018-07-13T00:15:10.625Z,99.90
2018-07-13T00:17:40.335Z,99.90
2018-07-13T00:20:08.367Z,99.90
2018-07-13T00:22:37.487Z,99.90
2018-07-13T00:25:06.365Z,99.90
2018-07-13T00:27:34.853Z,99.90
2018-07-13T00:30:03.357Z,99.90
2018-07-13T00:32:31.478Z,99.90
2018-07-13T00:34:59.470Z,99.90
2018-07-13T00:37:27.661Z,99.90
2018-07-13T00:39:55.621Z,99.90
2018-07-13T00:42:23.986Z,99.90
2018-07-13T00:44:52.893Z,99.90
2018-07-13T00:47:21.872Z,99.90
2018-07-13T00:49:49.968Z,99.90
2018-07-13T00:52:18.170Z,99.90
2018-07-13T00:54:47.970Z,99.90
2018-07-13T00:57:15.992Z,99.90
2018-07-13T00:59:44.966Z,99.90
2018-07-13T01:02:13.140Z,99.90
2018-07-13T01:04:41.716Z,99.90
2018-07-13T01:07:11.386Z,99.90
2018-07-13T01:09:41.142Z,99.90
2018-07-13T01:12:09.462Z,99.90
2018-07-13T01:14:37.529Z,99.90
2018-07-13T01:17:05.669Z,99.90
2018-07-13T01:19:33.782Z,99.90
2018-07-13T01:22:02.343Z,99.90
2018-07-13T01:24:31.463Z,99.90
2018-07-13T01:26:59.908Z,99.90
2018-07-13T01:29:28.379Z,99.90
2018-07-13T01:31:56.410Z,99.90
2018-07-13T01:34:24.535Z,99.90
2018-07-13T01:36:53.537Z,99.90
2018-07-13T01:39:21.550Z,99.90
2018-07-13T01:41:49.581Z,99.90
2018-07-13T01:44:17.570Z,99.90
2018-07-13T01:46:45.916Z,99.90
2018-07-13T01:49:14.093Z,99.90
2018-07-13T01:51:42.154Z,99.90
2018-07-13T01:54:10.375Z,99.90
2018-07-13T01:56:38.631Z,99.90
2018-07-13T01:59:08.469Z,99.90
2018-07-13T02:04:04.614Z,99.90
2018-07-13T02:06:33.533Z,99.90
2018-07-13T02:09:01.930Z,99.90
2018-07-13T02:11:29.894Z,99.90
2018-07-13T02:13:57.859Z,99.90
2018-07-13T02:16:25.872Z,99.90
2018-07-13T02:18:53.904Z,99.90
2018-07-13T02:21:22.030Z,99.90
2018-07-13T02:23:49.995Z,99.90
2018-07-13T02:26:18.044Z,99.90
2018-07-13T02:28:46.212Z,99.90
2018-07-13T02:31:14.167Z,99.90
2018-07-13T02:33:43.234Z,99.90
2018-07-13T02:36:11.293Z,99.90
2018-07-13T02:38:39.304Z,99.90
2018-07-13T02:41:07.366Z,99.90
2018-07-13T02:43:35.338Z,99.90
2018-07-13T02:46:03.434Z,99.90
2018-07-13T02:48:31.405Z,99.90
2018-07-13T02:50:59.386Z,99.90
2018-07-13T02:53:27.675Z,99.90
2018-07-13T02:55:55.694Z,99.90
2018-07-13T02:58:23.829Z,99.90
2018-07-13T03:00:51.882Z,99.90
2018-07-13T03:03:20.042Z,99.90
2018-07-13T03:05:48.433Z,99.90
2018-07-13T03:08:16.630Z,99.90
2018-07-13T03:10:45.067Z,99.90
2018-07-13T03:13:13.145Z,99.90
2018-07-13T03:15:41.130Z,99.90
2018-07-13T03:18:09.410Z,99.90
2018-07-13T03:20:38.250Z,99.90
2018-07-13T03:23:06.356Z,99.90
2018-07-13T03:25:34.639Z,99.90
2018-07-13T03:30:30.603Z,99.90
2018-07-13T03:33:00.220Z,99.90
2018-07-13T03:35:28.270Z,99.90
2018-07-13T03:37:57.235Z,99.90
2018-07-13T03:42:53.471Z,99.90
2018-07-13T03:45:21.594Z,99.90
2018-07-13T03:47:49.890Z,99.90
2018-07-13T03:50:19.121Z,99.90
2018-07-13T03:52:47.189Z,99.90
2018-07-13T03:55:15.189Z,99.90
2018-07-13T03:57:44.360Z,99.90
2018-07-13T04:00:12.314Z,99.90
2018-07-13T04:02:40.686Z,99.90
2018-07-13T04:05:08.874Z,99.90
2018-07-13T04:15:01.455Z,99.90
2018-07-13T04:17:29.789Z,99.90
2018-07-13T04:19:57.835Z,99.90
2018-07-13T04:24:54.151Z,99.90
2018-07-13T04:27:22.470Z,99.90
2018-07-13T04:29:51.033Z,99.90
2018-07-13T04:32:19.010Z,99.90
2018-07-13T04:34:47.116Z,99.90
2018-07-13T04:37:15.193Z,99.90
2018-07-13T04:39:43.285Z,99.90
2018-07-13T04:42:12.157Z,99.90
2018-07-13T04:44:40.836Z,99.90
2018-07-13T04:47:08.963Z,99.90
2018-07-13T04:49:37.533Z,99.90
2018-07-13T04:52:05.650Z,99.90
2018-07-13T04:54:35.267Z,99.90
2018-07-13T04:57:03.834Z,99.90
2018-07-13T04:59:32.153Z,99.90
2018-07-13T05:02:00.597Z,99.90
2018-07-13T05:04:28.956Z,99.90
2018-07-13T05:06:57.262Z,99.90
2018-07-13T05:09:25.918Z,99.90
2018-07-13T05:11:54.384Z,99.90
2018-07-13T05:14:22.592Z,99.90
2018-07-13T05:16:50.621Z,99.90
2018-07-13T05:19:18.712Z,99.90
2018-07-13T05:21:47.644Z,99.90
2018-07-13T05:24:18.337Z,99.90
2018-07-13T05:26:47.414Z,99.90
2018-07-13T05:29:15.557Z,99.90
2018-07-13T05:31:43.626Z,99.90
2018-07-13T05:34:12.610Z,99.90
2018-07-13T05:36:40.765Z,99.90
2018-07-13T05:39:11.401Z,99.90
2018-07-13T05:41:40.705Z,99.90
2018-07-13T05:44:08.836Z,99.90
2018-07-13T05:46:37.078Z,99.90
2018-07-13T05:49:05.506Z,99.90
2018-07-13T05:51:37.710Z,99.90
2018-07-13T05:54:06.078Z,99.90
2018-07-13T05:56:34.353Z,99.90
2018-07-13T05:59:04.382Z,99.90
2018-07-13T06:01:34.768Z,99.90
2018-07-13T06:04:03.112Z,99.90
2018-07-13T06:06:31.494Z,99.90
2018-07-13T06:08:59.826Z,99.90
2018-07-13T06:11:28.750Z,99.90
2018-07-13T06:13:56.811Z,99.90
2018-07-13T06:16:24.914Z,99.90
2018-07-13T06:18:52.934Z,99.90
2018-07-13T06:21:21.777Z,99.90
2018-07-13T06:23:50.036Z,99.90
2018-07-13T06:26:18.251Z,99.90
2018-07-13T06:28:46.338Z,99.90
2018-07-13T06:31:15.362Z,99.90
2018-07-13T06:33:43.393Z,99.90
2018-07-13T06:36:11.677Z,99.90
2018-07-13T06:38:40.141Z,99.90
2018-07-13T06:41:08.424Z,99.90
2018-07-13T06:43:37.351Z,99.90
2018-07-13T06:46:07.105Z,99.90
2018-07-13T06:48:35.914Z,99.90
2018-07-13T06:51:04.713Z,99.90
2018-07-13T06:53:33.505Z,99.90
2018-07-13T06:56:01.607Z,99.90
2018-07-13T06:58:40.797Z,99.90
2018-07-13T07:01:09.461Z,99.90
2018-07-13T07:04:42.670Z,99.90
2018-07-13T07:07:16.695Z,99.90
2018-07-13T07:09:50.193Z,99.90
2018-07-13T07:12:58.538Z,99.90
2018-07-13T07:15:27.787Z,99.90
2018-07-13T07:17:56.095Z,99.90
2018-07-13T07:20:25.881Z,99.90
2018-07-13T07:22:53.899Z,99.90
2018-07-13T07:25:22.342Z,99.60
2018-07-13T07:27:51.736Z,98.80
2018-07-13T07:30:21.348Z,98.40
2018-07-13T07:32:49.611Z,97.20
2018-07-13T07:35:17.734Z,97.60
2018-07-13T07:37:46.815Z,97.50
2018-07-13T07:40:15.090Z,95.70
2018-07-13T07:42:43.236Z,96.10
2018-07-13T07:45:11.440Z,96.50
2018-07-13T07:47:39.667Z,95.40
2018-07-13T07:50:08.927Z,94.80
2018-07-13T07:52:37.535Z,94.40
2018-07-13T07:55:05.625Z,92.70
2018-07-13T07:57:33.682Z,92.10
2018-07-13T08:00:01.971Z,89.90
2018-07-13T08:02:30.039Z,88.70
2018-07-13T08:04:59.433Z,90.40
2018-07-13T08:07:28.747Z,90.60
2018-07-13T08:09:57.057Z,91.80
2018-07-13T08:12:25.598Z,90.30
2018-07-13T08:14:56.370Z,89.60
2018-07-13T08:17:24.630Z,90.50
2018-07-13T08:19:54.385Z,91.00
2018-07-13T08:22:33.754Z,90.90
2018-07-13T08:25:04.202Z,87.20
2018-07-13T08:27:36.538Z,85.20
2018-07-13T08:30:08.127Z,85.30
2018-07-13T08:32:36.286Z,81.80
2018-07-13T08:35:04.510Z,85.70
2018-07-13T08:40:02.606Z,85.20
2018-07-13T08:44:59.922Z,81.70
2018-07-13T08:47:28.641Z,83.70
2018-07-13T08:49:56.992Z,83.90
2018-07-13T08:52:25.471Z,81.20
2018-07-13T08:54:53.774Z,78.80
2018-07-13T08:59:53.394Z,75.20
2018-07-13T09:02:23.418Z,74.80
2018-07-13T09:04:52.686Z,73.80
2018-07-13T09:07:23.115Z,73.80
2018-07-13T09:09:53.293Z,76.10
2018-07-13T09:12:29.778Z,75.50
2018-07-13T09:14:57.867Z,75.90
2018-07-13T09:17:27.621Z,74.20
2018-07-13T09:19:55.620Z,70.80
2018-07-13T09:22:28.396Z,72.90
2018-07-13T09:24:59.146Z,73.90
2018-07-13T09:27:27.151Z,69.20
2018-07-13T09:29:55.791Z,67.40
2018-07-13T09:32:24.175Z,67.70
2018-07-13T09:34:53.856Z,69.40
2018-07-13T09:37:22.207Z,70.30
2018-07-13T09:39:55.589Z,69.60
2018-07-13T09:42:24.360Z,70.70
2018-07-13T09:44:52.868Z,68.60
2018-07-13T09:47:23.368Z,65.80
2018-07-13T09:49:52.257Z,68.40
2018-07-13T09:52:22.190Z,67.00
2018-07-13T09:54:51.786Z,70.40
2018-07-13T09:57:20.174Z,72.00
2018-07-13T10:02:27.836Z,77.10
2018-07-13T10:04:58.515Z,78.30
2018-07-13T10:07:27.818Z,78.30
2018-07-13T10:09:56.834Z,78.90
2018-07-13T10:12:25.038Z,78.90
2018-07-13T10:14:55.104Z,78.20
2018-07-13T10:17:24.592Z,79.70
2018-07-13T10:19:52.981Z,80.60
2018-07-13T10:22:25.513Z,80.40
2018-07-13T10:24:56.125Z,80.30
2018-07-13T10:27:27.093Z,80.40
2018-07-13T10:29:57.345Z,81.00
2018-07-13T10:32:25.826Z,80.00
2018-07-13T10:34:54.383Z,79.60
2018-07-13T10:37:23.886Z,81.20
2018-07-13T10:39:52.896Z,82.00
2018-07-13T10:42:21.888Z,81.20
2018-07-13T10:44:50.063Z,80.50
2018-07-13T10:47:21.741Z,79.80
2018-07-13T10:49:50.549Z,79.40
2018-07-13T10:52:18.577Z,79.80
2018-07-13T10:54:49.206Z,78.70
2018-07-13T10:57:18.817Z,77.80
2018-07-13T10:59:47.693Z,79.40
2018-07-13T11:02:15.761Z,78.40
2018-07-13T11:04:44.752Z,80.00
2018-07-13T11:07:13.080Z,79.50
2018-07-13T11:09:42.017Z,78.80
2018-07-13T11:12:11.782Z,80.30
2018-07-13T11:14:41.320Z,78.50
2018-07-13T11:17:11.417Z,78.00
2018-07-13T11:19:39.398Z,76.60
2018-07-13T11:22:08.376Z,76.70
2018-07-13T11:24:36.798Z,77.50
2018-07-13T11:27:04.817Z,79.30
2018-07-13T11:29:33.262Z,79.40
2018-07-13T11:32:02.771Z,79.90
2018-07-13T11:34:31.080Z,78.40
2018-07-13T11:37:00.460Z,74.10
2018-07-13T11:39:29.219Z,76.40
2018-07-13T11:41:57.386Z,75.10
2018-07-13T11:44:26.849Z,76.70
2018-07-13T11:46:57.327Z,76.30
2018-07-13T11:49:25.304Z,74.60
2018-07-13T11:51:54.869Z,74.50
2018-07-13T11:54:28.174Z,74.40
2018-07-13T11:56:57.332Z,72.50
2018-07-13T11:59:25.748Z,73.80
2018-07-13T12:01:54.291Z,74.20
2018-07-13T12:04:22.497Z,73.90
2018-07-13T12:06:50.734Z,73.50
2018-07-13T12:09:18.790Z,72.10
2018-07-13T12:11:46.854Z,72.50
2018-07-13T12:14:15.477Z,72.40
2018-07-13T12:16:43.921Z,73.10
2018-07-13T12:19:13.657Z,73.50
2018-07-13T12:21:42.649Z,72.50
2018-07-13T12:24:11.355Z,71.00
2018-07-13T12:26:40.738Z,70.90
2018-07-13T12:29:09.794Z,72.00
2018-07-13T12:31:39.277Z,71.70
2018-07-13T12:34:09.542Z,72.00
2018-07-13T12:36:38.552Z,71.20
2018-07-13T12:39:08.649Z,70.10
2018-07-13T12:41:40.063Z,69.30
2018-07-13T12:44:12.225Z,69.70
2018-07-13T12:46:42.426Z,70.00
2018-07-13T12:49:12.917Z,70.80
2018-07-13T12:51:41.230Z,67.40
2018-07-13T12:54:10.364Z,68.40
2018-07-13T12:59:12.837Z,69.30
2018-07-13T13:01:41.902Z,69.70
2018-07-13T13:04:12.022Z,69.60
2018-07-13T13:06:40.814Z,71.10
2018-07-13T13:09:10.916Z,67.80
2018-07-13T13:11:39.102Z,67.00
2018-07-13T13:14:07.145Z,68.70
2018-07-13T13:16:35.421Z,69.10
2018-07-13T13:19:03.803Z,69.00
2018-07-13T13:21:33.132Z,67.20
2018-07-13T13:24:02.381Z,67.10
2018-07-13T13:26:30.380Z,66.40
2018-07-13T13:28:59.091Z,68.20
2018-07-13T13:31:28.718Z,67.60
2018-07-13T13:33:59.826Z,67.90
2018-07-13T13:36:34.297Z,69.20
2018-07-13T13:39:09.635Z,70.30
2018-07-13T13:41:43.703Z,71.30
2018-07-13T13:44:12.095Z,73.00
2018-07-13T13:46:40.433Z,70.50
2018-07-13T13:49:08.458Z,69.80
2018-07-13T13:51:37.923Z,71.70
2018-07-13T13:54:06.190Z,70.70
2018-07-13T13:56:35.008Z,74.10
2018-07-13T13:59:02.993Z,74.70
2018-07-13T14:01:31.530Z,75.20
2018-07-13T14:04:02.654Z,74.00
2018-07-13T14:06:32.235Z,75.40
2018-07-13T14:09:00.665Z,73.20
2018-07-13T14:11:29.082Z,74.70
2018-07-13T14:13:57.410Z,73.60
2018-07-13T14:16:25.733Z,73.40
2018-07-13T14:18:54.377Z,72.70
2018-07-13T14:21:22.995Z,72.70
2018-07-13T14:23:52.331Z,72.10
2018-07-13T14:26:21.657Z,71.80
2018-07-13T14:28:50.413Z,71.90
2018-07-13T14:31:19.610Z,70.70
2018-07-13T14:33:48.071Z,71.70
2018-07-13T14:36:20.059Z,73.20
2018-07-13T14:38:49.538Z,71.00
2018-07-13T14:41:20.393Z,71.00
2018-07-13T14:43:48.592Z,70.10
2018-07-13T14:46:16.803Z,70.30
2018-07-13T14:48:45.087Z,71.50
2018-07-13T14:51:13.336Z,72.40
2018-07-13T14:53:42.695Z,72.10
2018-07-13T14:56:12.454Z,70.40
2018-07-13T14:58:40.836Z,70.40
2018-07-13T15:01:10.002Z,72.00
2018-07-13T15:03:38.603Z,70.80
2018-07-13T15:06:07.227Z,70.70
2018-07-13T15:08:35.841Z,70.50
2018-07-13T15:11:04.544Z,71.40
2018-07-13T15:13:32.966Z,71.90
2018-07-13T15:16:01.358Z,71.80
2018-07-13T15:18:30.659Z,72.10
2018-07-13T15:20:59.805Z,73.20
2018-07-13T15:23:28.061Z,73.20
2018-07-13T15:25:56.733Z,74.00
2018-07-13T15:28:25.361Z,73.90
2018-07-13T15:30:53.368Z,75.20
2018-07-13T15:33:21.767Z,75.00
2018-07-13T15:35:50.961Z,75.90
2018-07-13T15:38:19.822Z,75.30
2018-07-13T15:40:49.956Z,75.00
2018-07-13T15:43:19.647Z,74.50
2018-07-13T15:48:17.610Z,73.80
2018-07-13T15:50:49.636Z,75.00
2018-07-13T15:53:18.231Z,74.70
2018-07-13T15:55:51.770Z,73.00
2018-07-13T15:58:22.109Z,71.90
2018-07-13T16:00:51.333Z,73.50
2018-07-13T16:03:19.787Z,73.20
2018-07-13T16:05:48.237Z,75.40
2018-07-13T16:08:20.438Z,75.90
2018-07-13T16:10:48.852Z,77.30
2018-07-13T16:13:17.241Z,76.50
2018-07-13T16:15:46.103Z,77.80
2018-07-13T16:18:16.341Z,79.00
2018-07-13T16:20:45.812Z,78.80
2018-07-13T16:23:15.169Z,78.70
2018-07-13T16:25:44.464Z,78.80
2018-07-13T16:28:14.648Z,79.10
2018-07-13T16:30:46.951Z,79.40
2018-07-13T16:33:15.243Z,80.90
2018-07-13T16:35:43.467Z,79.60
2018-07-13T16:38:11.685Z,80.00
2018-07-13T16:40:39.770Z,80.50
2018-07-13T16:43:10.151Z,79.50
2018-07-13T16:45:40.003Z,79.80
2018-07-13T16:48:08.273Z,80.10
2018-07-13T16:50:37.374Z,81.00
2018-07-13T16:53:06.232Z,81.50
2018-07-13T16:55:34.608Z,81.70
2018-07-13T16:58:03.713Z,81.00
2018-07-13T17:00:32.028Z,82.60
2018-07-13T17:03:00.881Z,81.40
2018-07-13T17:05:30.320Z,79.10
2018-07-13T17:07:59.016Z,79.90
2018-07-13T17:10:27.796Z,78.50
2018-07-13T17:12:59.601Z,78.60
2018-07-13T17:15:29.948Z,78.80
2018-07-13T17:22:55.092Z,78.60
2018-07-13T17:25:23.763Z,78.70
2018-07-13T17:27:54.492Z,79.10
2018-07-13T17:30:22.878Z,78.40
2018-07-13T17:32:51.780Z,77.40
2018-07-13T17:35:19.946Z,76.90
2018-07-13T17:37:48.069Z,78.20
2018-07-13T17:40:17.255Z,79.30
2018-07-13T17:42:45.534Z,79.30
2018-07-13T17:45:14.690Z,79.00
2018-07-13T17:47:42.943Z,80.20
2018-07-13T17:50:13.312Z,79.50
2018-07-13T17:52:44.773Z,79.20
2018-07-13T17:55:15.302Z,79.60
2018-07-13T17:57:44.326Z,78.90
2018-07-13T18:00:20.700Z,78.90
2018-07-13T18:02:50.475Z,79.90
2018-07-13T18:05:18.443Z,79.40
2018-07-13T18:07:46.601Z,78.80
2018-07-13T18:10:14.791Z,79.30
2018-07-13T18:12:43.091Z,78.80
2018-07-13T18:15:11.102Z,79.70
2018-07-13T18:17:39.332Z,79.70
2018-07-13T18:20:08.445Z,78.80
2018-07-13T18:22:37.313Z,79.20
2018-07-13T18:25:06.908Z,79.10
2018-07-13T18:27:35.252Z,78.80
2018-07-13T18:30:04.098Z,79.30
2018-07-13T18:32:33.660Z,78.90
2018-07-13T18:35:04.612Z,79.20
2018-07-13T18:37:32.682Z,79.00
2018-07-13T18:40:02.007Z,79.40
2018-07-13T18:42:32.076Z,80.20
2018-07-13T18:45:01.477Z,80.90
2018-07-13T18:49:59.337Z,81.00
2018-07-13T18:52:27.336Z,82.50
2018-07-13T18:54:58.549Z,81.10
2018-07-13T18:57:29.083Z,82.00
2018-07-13T18:59:57.945Z,82.70
2018-07-13T19:02:26.328Z,83.10
2018-07-13T19:04:56.382Z,82.90
2018-07-13T19:07:26.697Z,83.30
2018-07-13T19:09:59.985Z,84.10
2018-07-13T19:12:28.966Z,84.30
2018-07-13T19:14:57.615Z,84.20
2018-07-13T19:17:25.781Z,84.50
2018-07-13T19:19:55.448Z,84.50
2018-07-13T19:22:32.581Z,84.00
2018-07-13T19:25:01.800Z,83.90
2018-07-13T19:27:32.172Z,84.10
2018-07-13T19:30:01.614Z,84.30
2018-07-13T19:32:32.338Z,84.80
2018-07-13T19:35:00.669Z,85.40
2018-07-13T19:37:30.809Z,85.60
2018-07-13T19:39:59.953Z,85.90
2018-07-13T19:42:33.380Z,86.70
2018-07-13T19:47:31.805Z,87.40
2018-07-13T19:50:00.513Z,87.60
2018-07-13T19:52:28.669Z,87.90
2018-07-13T19:54:58.125Z,88.30
2018-07-13T19:57:30.918Z,88.20
2018-07-13T20:00:01.000Z,88.20
2018-07-13T20:02:31.765Z,88.30
2018-07-13T20:05:02.786Z,88.30
2018-07-13T20:07:32.201Z,88.50
2018-07-13T20:10:01.607Z,88.80
2018-07-13T20:12:30.881Z,89.20
2018-07-13T20:14:59.661Z,89.10
2018-07-13T20:17:33.184Z,89.30
2018-07-13T20:20:01.669Z,89.90
2018-07-13T20:25:03.394Z,90.20
2018-07-13T20:27:32.444Z,90.50
2018-07-13T20:30:03.169Z,90.60
2018-07-13T20:32:31.816Z,91.00
2018-07-13T20:35:01.889Z,91.40
2018-07-13T20:37:33.977Z,91.50
2018-07-13T20:40:06.896Z,91.60
2018-07-13T20:42:35.246Z,91.50
2018-07-13T20:45:04.384Z,91.80
2018-07-13T20:47:33.296Z,92.00
2018-07-13T20:50:01.465Z,92.10
2018-07-13T20:54:58.844Z,92.40
2018-07-13T20:59:56.001Z,92.50
2018-07-13T21:02:25.165Z,93.00
2018-07-13T21:04:56.114Z,93.10
2018-07-13T21:07:24.483Z,93.10
2018-07-13T21:09:53.632Z,93.10
2018-07-13T21:12:22.328Z,93.40
2018-07-13T21:14:52.673Z,93.30
2018-07-13T21:17:20.832Z,93.50
2018-07-13T21:19:50.688Z,93.60
2018-07-13T21:22:20.005Z,93.80
2018-07-13T21:24:49.282Z,93.90
2018-07-13T21:27:18.518Z,94.30
2018-07-13T21:29:47.817Z,94.60
2018-07-13T21:32:19.294Z,94.90
2018-07-13T21:34:47.669Z,94.70
2018-07-13T21:37:23.189Z,94.90
2018-07-13T21:39:52.598Z,95.10
2018-07-13T21:42:21.136Z,95.20
2018-07-13T21:44:50.793Z,95.30
2018-07-13T21:47:19.402Z,95.60
2018-07-13T21:49:48.092Z,95.80
2018-07-13T21:52:20.749Z,96.20
2018-07-13T21:54:51.092Z,96.30
2018-07-13T21:57:19.569Z,96.60
2018-07-13T21:59:47.744Z,96.60
2018-07-13T22:02:16.249Z,96.80
2018-07-13T22:04:44.642Z,97.00
2018-07-13T22:07:20.086Z,97.10
2018-07-13T22:09:50.412Z,97.30
2018-07-13T22:12:18.661Z,97.50
2018-07-13T22:14:46.725Z,98.00
2018-07-13T22:17:14.742Z,97.90
2018-07-13T22:19:43.133Z,98.10
2018-07-13T22:22:11.136Z,98.20
2018-07-13T22:24:39.168Z,98.40
2018-07-13T22:27:07.314Z,98.30
2018-07-13T22:29:44.801Z,98.20
2018-07-13T22:32:13.965Z,98.30
2018-07-13T22:34:42.207Z,98.30
2018-07-13T22:37:10.805Z,98.30
2018-07-13T22:39:39.442Z,98.50
2018-07-13T22:42:07.538Z,98.50
2018-07-13T22:44:35.820Z,98.60
2018-07-13T22:47:04.402Z,98.60
2018-07-13T22:49:33.159Z,98.70
2018-07-13T22:52:01.824Z,99.00
2018-07-13T22:54:31.610Z,99.50
2018-07-13T22:57:01.300Z,99.80
2018-07-13T22:59:30.148Z,99.90
2018-07-13T23:01:58.316Z,99.90
2018-07-13T23:04:29.931Z,99.90
2018-07-13T23:06:57.997Z,99.90
2018-07-13T23:09:26.130Z,99.90
2018-07-13T23:14:22.117Z,99.90
2018-07-13T23:16:50.472Z,99.90
2018-07-13T23:19:18.985Z,99.90
2018-07-13T23:21:47.206Z,99.90
2018-07-13T23:24:15.465Z,99.90
2018-07-13T23:26:44.890Z,99.90
2018-07-13T23:31:42.191Z,99.90
2018-07-13T23:34:10.159Z,99.90
2018-07-13T23:36:38.759Z,99.90
2018-07-13T23:39:07.225Z,99.90
2018-07-13T23:41:36.504Z,99.90
2018-07-13T23:44:04.745Z,99.90
2018-07-13T23:46:34.399Z,99.90
2018-07-13T23:49:02.792Z,99.90
2018-07-13T23:51:31.729Z,99.90
2018-07-13T23:56:27.536Z,99.90
2018-07-13T23:58:56.384Z,99.90
